createdAt,value
2023-05-19T00:01:05.518Z,4.45
2023-05-19T00:03:09.243Z,3.75
2023-05-19T00:05:13.117Z,3.30
2023-05-19T00:07:19.740Z,3.38
2023-05-19T00:09:21.524Z,3.50
2023-05-19T00:11:23.920Z,4.32
2023-05-19T00:13:25.874Z,4.90
2023-05-19T00:15:27.734Z,5.53
2023-05-19T00:17:29.329Z,6.97
2023-05-19T00:19:32.468Z,4.60
2023-05-19T00:21:34.088Z,5.38
2023-05-19T00:23:35.686Z,5.47
2023-05-19T00:25:37.243Z,4.32
2023-05-19T00:27:38.816Z,3.60
2023-05-19T00:29:40.425Z,4.15
2023-05-19T00:31:42.005Z,3.85
2023-05-19T00:33:43.576Z,3.95
2023-05-19T00:35:45.114Z,4.32
2023-05-19T00:37:46.802Z,5.07
2023-05-19T00:39:48.349Z,4.60
2023-05-19T00:41:49.897Z,5.40
2023-05-19T00:43:51.665Z,6.15
2023-05-19T00:45:53.432Z,4.45
2023-05-19T00:47:55.003Z,4.30
2023-05-19T00:49:56.583Z,4.45
2023-05-19T00:51:59.570Z,4.10
2023-05-19T00:54:01.199Z,5.13
2023-05-19T00:56:03.480Z,4.75
2023-05-19T00:58:06.009Z,4.60
2023-05-19T01:00:08.404Z,4.88
2023-05-19T01:02:10.050Z,4.50
2023-05-19T01:04:11.734Z,4.60
2023-05-19T01:06:13.413Z,3.85
2023-05-19T01:08:15.003Z,4.20
2023-05-19T01:10:16.536Z,3.97
2023-05-19T01:12:18.195Z,3.97
2023-05-19T01:14:21.552Z,4.25
2023-05-19T01:16:37.593Z,4.32
2023-05-19T01:18:51.518Z,3.90
2023-05-19T01:21:16.074Z,3.97
2023-05-19T01:23:29.875Z,3.50
2023-05-19T01:25:57.081Z,3.55
2023-05-19T01:28:32.200Z,3.20
2023-05-19T01:30:36.784Z,3.30
2023-05-19T01:32:41.998Z,3.78
2023-05-19T01:34:49.043Z,3.67
2023-05-19T01:36:51.425Z,3.88
2023-05-19T01:38:56.350Z,3.78
2023-05-19T01:40:58.407Z,3.60
2023-05-19T01:43:01.881Z,3.85
2023-05-19T01:45:06.713Z,4.03
2023-05-19T01:47:10.889Z,4.88
2023-05-19T01:49:13.394Z,5.82
2023-05-19T01:51:15.066Z,7.60
2023-05-19T01:53:16.796Z,8.52
2023-05-19T01:55:18.644Z,9.00
2023-05-19T01:57:40.506Z,9.55
2023-05-19T02:00:07.853Z,8.95
2023-05-19T02:02:26.413Z,8.88
2023-05-19T02:04:52.995Z,6.57
2023-05-19T02:07:05.433Z,4.97
2023-05-19T02:09:29.570Z,5.13
2023-05-19T02:11:40.005Z,4.45
2023-05-19T02:13:44.265Z,5.38
2023-05-19T02:15:47.227Z,5.63
2023-05-19T02:17:52.160Z,4.50
2023-05-19T02:19:53.905Z,4.15
2023-05-19T02:21:56.411Z,8.68
2023-05-19T02:23:57.974Z,12.73
2023-05-19T02:25:59.586Z,13.63
2023-05-19T02:28:01.190Z,13.00
2023-05-19T02:30:08.254Z,13.13
2023-05-19T02:32:11.875Z,19.85
2023-05-19T02:34:13.506Z,9.65
2023-05-19T02:36:15.171Z,9.30
2023-05-19T02:38:16.872Z,4.32
2023-05-19T02:40:18.642Z,5.15
2023-05-19T02:42:20.911Z,4.47
2023-05-19T02:44:22.448Z,3.35
2023-05-19T02:46:24.317Z,4.22
2023-05-19T02:48:25.888Z,3.47
2023-05-19T02:50:27.525Z,4.20
2023-05-19T02:52:29.074Z,3.90
2023-05-19T02:54:31.208Z,4.70
2023-05-19T02:56:32.806Z,3.67
2023-05-19T02:58:34.334Z,4.40
2023-05-19T03:00:35.876Z,3.47
2023-05-19T03:02:37.565Z,4.50
2023-05-19T03:04:42.088Z,3.63
2023-05-19T03:06:45.563Z,3.83
2023-05-19T03:08:47.182Z,4.03
2023-05-19T03:10:48.767Z,4.50
2023-05-19T03:12:51.003Z,4.85
2023-05-19T03:14:52.563Z,5.53
2023-05-19T03:16:56.034Z,6.18
2023-05-19T03:18:58.114Z,7.35
2023-05-19T03:20:59.884Z,8.43
2023-05-19T03:23:01.596Z,10.07
2023-05-19T03:25:03.481Z,15.18
2023-05-19T03:27:07.975Z,16.67
2023-05-19T03:29:09.590Z,12.10
2023-05-19T03:31:11.180Z,13.30
2023-05-19T03:33:13.026Z,6.65
2023-05-19T03:35:14.829Z,5.10
2023-05-19T03:37:16.513Z,5.28
2023-05-19T03:39:18.130Z,5.65
2023-05-19T03:41:19.764Z,4.82
2023-05-19T03:43:21.383Z,5.00
2023-05-19T03:45:22.936Z,5.97
2023-05-19T03:47:24.635Z,4.63
2023-05-19T03:49:26.211Z,4.78
2023-05-19T03:51:28.709Z,5.15
2023-05-19T03:53:30.405Z,5.10
2023-05-19T03:55:31.997Z,4.38
2023-05-19T03:57:33.694Z,4.80
2023-05-19T03:59:37.219Z,5.20
2023-05-19T04:01:38.777Z,4.85
2023-05-19T04:03:40.778Z,7.78
2023-05-19T04:05:42.395Z,5.00
2023-05-19T04:07:45.120Z,5.80
2023-05-19T04:09:48.621Z,7.28
2023-05-19T04:11:50.701Z,6.75
2023-05-19T04:13:52.229Z,7.47
2023-05-19T04:15:53.924Z,6.53
2023-05-19T04:17:56.137Z,8.32
2023-05-19T04:19:57.754Z,36.35
2023-05-19T04:21:59.426Z,11.73
2023-05-19T04:24:01.047Z,6.10
2023-05-19T04:26:03.790Z,5.25
2023-05-19T04:28:05.317Z,4.97
2023-05-19T04:30:07.660Z,5.45
2023-05-19T04:32:09.341Z,5.43
2023-05-19T04:34:11.475Z,8.55
2023-05-19T04:36:14.046Z,5.32
2023-05-19T04:38:19.067Z,5.65
2023-05-19T04:40:22.050Z,5.10
2023-05-19T04:42:26.189Z,5.00
2023-05-19T04:44:27.890Z,5.20
2023-05-19T04:46:30.375Z,5.28
2023-05-19T04:48:33.412Z,4.82
2023-05-19T04:50:35.490Z,6.53
2023-05-19T04:52:37.779Z,6.68
2023-05-19T04:54:40.133Z,5.45
2023-05-19T04:56:42.119Z,10.40
2023-05-19T04:58:44.970Z,6.60
2023-05-19T05:00:46.580Z,5.65
2023-05-19T05:02:49.100Z,6.07
2023-05-19T05:04:50.765Z,6.80
2023-05-19T05:06:52.334Z,5.10
2023-05-19T05:08:54.554Z,5.45
2023-05-19T05:10:56.480Z,5.40
2023-05-19T05:12:58.299Z,5.32
2023-05-19T05:15:00.280Z,5.53
2023-05-19T05:17:02.576Z,6.20
2023-05-19T05:19:04.889Z,5.80
2023-05-19T05:21:07.198Z,5.15
2023-05-19T05:23:09.915Z,5.35
2023-05-19T05:25:12.474Z,4.53
2023-05-19T05:27:15.048Z,5.22
2023-05-19T05:29:16.586Z,5.60
2023-05-19T05:31:18.229Z,5.18
2023-05-19T05:33:19.885Z,4.97
2023-05-19T05:35:24.139Z,5.40
2023-05-19T05:37:25.912Z,4.80
2023-05-19T05:39:28.132Z,4.47
2023-05-19T05:41:35.326Z,4.68
2023-05-19T05:43:37.092Z,4.55
2023-05-19T05:45:38.640Z,4.45
2023-05-19T05:47:41.569Z,5.90
2023-05-19T05:49:44.044Z,5.10
2023-05-19T05:51:54.579Z,4.65
2023-05-19T05:54:06.540Z,5.03
2023-05-19T05:56:08.988Z,5.88
2023-05-19T05:58:11.364Z,5.68
2023-05-19T06:00:15.938Z,4.47
2023-05-19T06:02:18.218Z,5.05
2023-05-19T06:04:21.273Z,4.80
2023-05-19T06:06:23.276Z,4.38
2023-05-19T06:08:24.828Z,4.82
2023-05-19T06:10:26.591Z,4.90
2023-05-19T06:12:28.171Z,5.53
2023-05-19T06:14:29.740Z,5.25
2023-05-19T06:16:31.436Z,4.72
2023-05-19T06:18:33.321Z,4.50
2023-05-19T06:20:35.070Z,5.03
2023-05-19T06:22:37.355Z,4.90
2023-05-19T06:24:39.669Z,4.88
2023-05-19T06:26:41.690Z,5.40
2023-05-19T06:28:43.363Z,4.90
2023-05-19T06:30:44.994Z,5.00
2023-05-19T06:32:47.007Z,5.35
2023-05-19T06:34:54.101Z,5.82
2023-05-19T06:36:55.696Z,6.90
2023-05-19T06:38:57.780Z,10.00
2023-05-19T06:40:59.422Z,5.85
2023-05-19T06:43:01.024Z,5.32
2023-05-19T06:45:02.684Z,6.88
2023-05-19T06:47:04.488Z,7.60
2023-05-19T06:49:06.180Z,5.93
2023-05-19T06:51:07.728Z,4.90
2023-05-19T06:53:09.295Z,5.78
2023-05-19T06:55:11.005Z,5.60
2023-05-19T06:57:12.579Z,5.93
2023-05-19T06:59:14.288Z,5.85
2023-05-19T07:01:15.851Z,16.83
2023-05-19T07:03:17.618Z,5.45
2023-05-19T07:05:19.683Z,6.90
2023-05-19T07:07:21.310Z,5.22
2023-05-19T07:09:22.912Z,5.57
2023-05-19T07:11:24.492Z,8.40
2023-05-19T07:13:27.486Z,6.15
2023-05-19T07:15:29.292Z,5.63
2023-05-19T07:17:31.004Z,5.78
2023-05-19T07:19:32.799Z,8.00
2023-05-19T07:21:34.378Z,8.05
2023-05-19T07:23:36.148Z,6.13
2023-05-19T07:25:37.795Z,5.80
2023-05-19T07:27:39.328Z,6.88
2023-05-19T07:29:41.041Z,7.20
2023-05-19T07:31:42.610Z,8.02
2023-05-19T07:33:44.267Z,7.05
2023-05-19T07:35:46.341Z,5.13
2023-05-19T07:37:48.368Z,6.25
2023-05-19T07:39:50.060Z,6.25
2023-05-19T07:41:55.662Z,6.43
2023-05-19T07:43:57.279Z,6.43
2023-05-19T07:45:59.059Z,6.03
2023-05-19T07:48:01.002Z,8.82
2023-05-19T07:50:02.768Z,5.40
2023-05-19T07:52:04.839Z,4.97
2023-05-19T07:54:08.354Z,5.85
2023-05-19T07:56:09.908Z,5.30
2023-05-19T07:58:11.423Z,6.70
2023-05-19T08:00:13.490Z,6.68
2023-05-19T08:02:15.051Z,6.13
2023-05-19T08:04:16.750Z,5.13
2023-05-19T08:06:18.409Z,6.28
2023-05-19T08:08:19.976Z,5.85
2023-05-19T08:10:21.547Z,4.88
2023-05-19T08:12:23.119Z,7.93
2023-05-19T08:14:24.754Z,8.18
2023-05-19T08:16:26.628Z,7.57
2023-05-19T08:18:28.858Z,6.95
2023-05-19T08:20:30.759Z,6.60
2023-05-19T08:22:32.420Z,5.57
2023-05-19T08:24:34.026Z,7.25
2023-05-19T08:26:37.595Z,6.40
2023-05-19T08:28:39.538Z,7.57
2023-05-19T08:30:41.186Z,9.05
2023-05-19T08:32:42.825Z,6.32
2023-05-19T08:34:44.426Z,7.22
2023-05-19T08:36:46.086Z,6.03
2023-05-19T08:38:47.658Z,6.63
2023-05-19T08:40:49.380Z,6.95
2023-05-19T08:42:51.379Z,6.30
2023-05-19T08:44:52.979Z,6.70
2023-05-19T08:46:56.276Z,6.70
2023-05-19T08:49:07.496Z,6.65
2023-05-19T08:51:23.274Z,7.68
2023-05-19T08:53:33.833Z,7.05
2023-05-19T08:55:47.758Z,7.00
2023-05-19T08:57:50.897Z,8.75
2023-05-19T08:59:53.245Z,10.63
2023-05-19T09:01:55.737Z,7.35
2023-05-19T09:03:57.724Z,9.55
2023-05-19T09:05:59.461Z,9.35
2023-05-19T09:08:02.918Z,8.68
2023-05-19T09:10:06.036Z,7.80
2023-05-19T09:12:07.666Z,12.20
2023-05-19T09:14:09.229Z,10.15
2023-05-19T09:16:12.062Z,12.23
2023-05-19T09:18:15.343Z,10.32
2023-05-19T09:20:17.652Z,8.05
2023-05-19T09:22:20.716Z,8.48
2023-05-19T09:24:26.142Z,7.00
2023-05-19T09:26:37.417Z,7.95
2023-05-19T09:28:40.514Z,9.13
2023-05-19T09:30:42.169Z,11.00
2023-05-19T09:32:44.785Z,10.88
2023-05-19T09:34:47.505Z,9.38
2023-05-19T09:36:50.069Z,9.27
2023-05-19T09:38:51.854Z,8.80
2023-05-19T09:40:57.283Z,18.80
2023-05-19T09:42:58.823Z,8.27
2023-05-19T09:45:02.068Z,8.13
2023-05-19T09:47:03.661Z,7.13
2023-05-19T09:49:14.518Z,6.90
2023-05-19T09:51:16.136Z,9.00
2023-05-19T09:53:18.603Z,10.75
2023-05-19T09:55:23.255Z,10.32
2023-05-19T09:57:28.511Z,10.77
2023-05-19T09:59:33.369Z,9.38
2023-05-19T10:01:36.406Z,10.40
2023-05-19T10:03:39.259Z,9.65
2023-05-19T10:05:42.060Z,9.50
2023-05-19T10:07:49.745Z,9.40
2023-05-19T10:09:53.145Z,12.32
2023-05-19T10:11:56.301Z,10.35
2023-05-19T10:13:58.243Z,10.27
2023-05-19T10:16:00.761Z,18.75
2023-05-19T10:18:03.684Z,19.73
2023-05-19T10:20:10.996Z,10.30
2023-05-19T10:22:12.619Z,9.90
2023-05-19T10:24:14.152Z,10.98
2023-05-19T10:26:16.427Z,14.98
2023-05-19T10:28:21.216Z,12.85
2023-05-19T10:30:34.530Z,13.13
2023-05-19T10:32:38.049Z,9.80
2023-05-19T10:35:02.584Z,12.63
2023-05-19T10:37:34.416Z,15.48
2023-05-19T10:39:36.307Z,10.85
2023-05-19T10:41:51.052Z,9.75
2023-05-19T10:44:13.104Z,10.70
2023-05-19T10:46:14.672Z,9.70
2023-05-19T10:48:17.036Z,8.77
2023-05-19T10:50:20.113Z,9.23
2023-05-19T10:52:25.873Z,9.55
2023-05-19T10:54:41.503Z,10.85
2023-05-19T10:56:47.560Z,12.02
2023-05-19T10:58:50.237Z,10.38
2023-05-19T11:01:00.488Z,12.15
2023-05-19T11:03:18.829Z,10.23
2023-05-19T11:05:28.843Z,11.90
2023-05-19T11:09:40.038Z,9.98
2023-05-19T11:11:52.728Z,11.60
2023-05-19T11:13:55.606Z,11.85
2023-05-19T11:15:57.192Z,12.90
2023-05-19T11:18:01.721Z,13.23
2023-05-19T11:20:05.042Z,12.32
2023-05-19T11:22:10.872Z,12.48
2023-05-19T11:24:42.250Z,14.38
2023-05-19T11:26:43.855Z,11.30
2023-05-19T11:28:47.707Z,11.23
2023-05-19T11:30:52.300Z,12.48
2023-05-19T11:32:54.592Z,13.98
2023-05-19T11:34:57.173Z,18.33
2023-05-19T11:36:59.480Z,17.73
2023-05-19T11:39:02.530Z,18.92
2023-05-19T11:41:04.403Z,16.90
2023-05-19T11:43:05.943Z,16.65
2023-05-19T11:45:08.259Z,14.60
2023-05-19T11:47:09.900Z,15.32
2023-05-19T11:49:11.688Z,14.50
2023-05-19T11:51:13.410Z,12.43
2023-05-19T11:53:16.491Z,13.63
2023-05-19T11:55:21.037Z,12.27
2023-05-19T11:57:22.758Z,11.75
2023-05-19T11:59:36.012Z,12.52
2023-05-19T12:01:38.115Z,12.68
2023-05-19T12:03:39.867Z,12.05
2023-05-19T12:05:48.195Z,13.38
2023-05-19T12:07:51.642Z,13.10
2023-05-19T12:09:55.448Z,11.32
2023-05-19T12:11:57.098Z,12.35
2023-05-19T12:13:59.125Z,12.10
2023-05-19T12:16:01.799Z,12.27
2023-05-19T12:18:03.955Z,13.02
2023-05-19T12:20:06.821Z,12.63
2023-05-19T12:22:08.788Z,13.65
2023-05-19T12:24:11.076Z,13.63
2023-05-19T12:26:13.064Z,12.57
2023-05-19T12:28:16.373Z,12.13
2023-05-19T12:30:19.232Z,12.13
2023-05-19T12:32:25.541Z,13.07
2023-05-19T12:34:27.464Z,13.60
2023-05-19T12:36:29.327Z,12.65
2023-05-19T12:38:32.012Z,18.38
2023-05-19T12:40:35.798Z,14.68
2023-05-19T12:42:37.970Z,15.65
2023-05-19T12:44:46.792Z,12.68
2023-05-19T12:46:52.138Z,12.43
2023-05-19T12:49:00.818Z,18.77
2023-05-19T12:51:02.503Z,20.10
2023-05-19T12:53:08.850Z,14.68
2023-05-19T12:55:11.980Z,14.35
2023-05-19T12:57:16.860Z,13.10
2023-05-19T12:59:37.459Z,15.20
2023-05-19T13:01:40.236Z,14.70
2023-05-19T13:03:42.731Z,15.02
2023-05-19T13:05:49.075Z,15.68
2023-05-19T13:08:04.678Z,15.85
2023-05-19T13:10:06.749Z,13.45
2023-05-19T13:12:08.709Z,16.50
2023-05-19T13:14:10.527Z,17.77
2023-05-19T13:16:12.338Z,17.65
2023-05-19T13:18:14.518Z,17.00
2023-05-19T13:20:16.069Z,16.02
2023-05-19T13:22:17.761Z,15.77
2023-05-19T13:24:19.334Z,17.90
2023-05-19T13:26:21.648Z,19.67
2023-05-19T13:28:23.442Z,17.10
2023-05-19T13:30:25.838Z,15.40
2023-05-19T13:32:27.590Z,13.70
2023-05-19T13:34:29.335Z,17.85
2023-05-19T13:36:32.829Z,17.60
2023-05-19T13:38:34.386Z,17.75
2023-05-19T13:40:36.869Z,18.10
2023-05-19T13:42:38.466Z,14.02
2023-05-19T13:44:40.056Z,20.98
2023-05-19T13:46:45.837Z,19.88
2023-05-19T13:48:48.458Z,17.85
2023-05-19T13:50:52.512Z,13.75
2023-05-19T13:52:54.192Z,13.63
2023-05-19T13:54:56.877Z,13.15
2023-05-19T13:56:58.470Z,14.13
2023-05-19T13:59:00.082Z,14.07
2023-05-19T14:01:01.756Z,15.77
2023-05-19T14:03:03.873Z,15.50
2023-05-19T14:05:07.127Z,12.68
2023-05-19T14:07:10.424Z,14.55
2023-05-19T14:09:12.651Z,13.57
2023-05-19T14:11:21.729Z,13.90
2023-05-19T14:15:28.321Z,16.92
2023-05-19T14:17:29.990Z,15.43
2023-05-19T14:19:31.602Z,16.00
2023-05-19T14:21:33.262Z,12.88
2023-05-19T14:23:34.878Z,12.40
2023-05-19T14:25:36.558Z,13.40
2023-05-19T14:27:39.997Z,16.05
2023-05-19T14:29:42.297Z,19.30
2023-05-19T14:31:43.920Z,22.40
2023-05-19T14:33:45.539Z,24.27
2023-05-19T14:35:47.223Z,18.38
2023-05-19T14:37:48.848Z,18.40
2023-05-19T14:39:50.540Z,17.75
2023-05-19T14:41:53.022Z,20.30
2023-05-19T14:43:54.676Z,26.73
2023-05-19T14:45:57.020Z,20.65
2023-05-19T14:47:58.869Z,41.95
2023-05-19T14:50:00.557Z,18.77
2023-05-19T14:52:02.249Z,16.80
2023-05-19T14:54:03.857Z,14.50
2023-05-19T14:56:06.517Z,15.95
2023-05-19T14:58:16.264Z,14.73
2023-05-19T15:00:28.844Z,18.50
2023-05-19T15:02:30.615Z,22.35
2023-05-19T15:04:32.291Z,16.88
2023-05-19T15:06:33.837Z,25.30
2023-05-19T15:08:37.795Z,11.98
2023-05-19T15:10:39.460Z,14.40
2023-05-19T15:12:41.198Z,15.23
2023-05-19T15:14:42.732Z,15.48
2023-05-19T15:16:44.376Z,14.35
2023-05-19T15:18:45.990Z,14.88
2023-05-19T15:20:48.600Z,20.65
2023-05-19T15:22:50.383Z,23.60
2023-05-19T15:24:51.925Z,18.73
2023-05-19T15:26:54.367Z,15.55
2023-05-19T15:28:55.989Z,18.80
2023-05-19T15:30:57.553Z,16.52
2023-05-19T15:32:59.195Z,24.00
2023-05-19T15:35:00.912Z,17.75
2023-05-19T15:37:02.470Z,17.30
2023-05-19T15:39:04.069Z,12.23
2023-05-19T15:41:09.278Z,13.57
2023-05-19T15:43:10.916Z,12.73
2023-05-19T15:45:12.597Z,35.72
2023-05-19T15:47:14.188Z,20.98
2023-05-19T15:49:18.027Z,22.10
2023-05-19T15:51:19.636Z,59.50
2023-05-19T15:53:21.231Z,31.40
2023-05-19T15:55:22.863Z,18.65
2023-05-19T15:57:25.034Z,21.92
2023-05-19T15:59:26.649Z,23.98
2023-05-19T16:01:28.602Z,30.00
2023-05-19T16:03:30.492Z,29.30
2023-05-19T16:05:32.411Z,36.88
2023-05-19T16:07:33.971Z,127.85
2023-05-19T16:09:35.529Z,53.85
2023-05-19T16:11:37.116Z,20.67
2023-05-19T16:13:38.674Z,39.90
2023-05-19T16:15:40.663Z,18.80
2023-05-19T16:17:42.561Z,14.18
2023-05-19T16:19:44.264Z,45.42
2023-05-19T16:21:45.916Z,30.58
2023-05-19T16:23:47.678Z,17.65
2023-05-19T16:25:49.514Z,28.75
2023-05-19T16:27:51.554Z,15.65
2023-05-19T16:29:53.285Z,22.70
2023-05-19T16:31:54.909Z,24.55
2023-05-19T16:33:56.618Z,18.73
2023-05-19T16:35:59.962Z,18.38
2023-05-19T16:38:01.585Z,14.10
2023-05-19T16:40:03.567Z,18.90
2023-05-19T16:42:05.314Z,15.00
2023-05-19T16:44:06.846Z,14.88
2023-05-19T16:46:09.955Z,37.67
2023-05-19T16:48:11.606Z,40.95
2023-05-19T16:50:13.271Z,14.52
2023-05-19T16:52:14.886Z,16.60
2023-05-19T16:54:16.420Z,16.13
2023-05-19T16:56:18.097Z,16.23
2023-05-19T16:58:19.749Z,16.90
2023-05-19T17:00:21.354Z,17.42
2023-05-19T17:02:22.961Z,21.02
2023-05-19T17:04:24.626Z,17.48
2023-05-19T17:06:26.307Z,20.83
2023-05-19T17:08:28.056Z,14.82
2023-05-19T17:10:29.672Z,15.07
2023-05-19T17:12:31.360Z,16.15
2023-05-19T17:14:33.025Z,15.60
2023-05-19T17:16:38.060Z,17.02
2023-05-19T17:18:39.687Z,19.15
2023-05-19T17:20:41.697Z,17.83
2023-05-19T17:22:43.362Z,16.02
2023-05-19T17:24:45.114Z,25.70
2023-05-19T17:26:46.717Z,15.57
2023-05-19T17:28:48.454Z,17.77
2023-05-19T17:30:50.039Z,24.00
2023-05-19T17:32:51.804Z,19.88
2023-05-19T17:34:53.827Z,17.33
2023-05-19T17:36:55.454Z,16.60
2023-05-19T17:38:56.955Z,15.27
2023-05-19T17:41:02.221Z,18.42
2023-05-19T17:43:04.039Z,21.98
2023-05-19T17:45:07.692Z,33.85
2023-05-19T17:47:09.309Z,35.45
2023-05-19T17:49:12.978Z,29.17
2023-05-19T17:51:14.542Z,25.33
2023-05-19T17:53:16.419Z,18.17
2023-05-19T17:55:18.636Z,16.02
2023-05-19T17:57:24.669Z,17.42
2023-05-19T17:59:26.519Z,19.35
2023-05-19T18:01:28.569Z,18.30
2023-05-19T18:03:30.826Z,16.33
2023-05-19T18:05:33.432Z,14.80
2023-05-19T18:07:39.251Z,15.80
2023-05-19T18:09:45.731Z,15.43
2023-05-19T18:11:47.700Z,14.80
2023-05-19T18:13:49.272Z,19.85
2023-05-19T18:15:52.712Z,19.23
2023-05-19T18:17:54.353Z,18.60
2023-05-19T18:19:55.949Z,23.08
2023-05-19T18:21:57.576Z,20.33
2023-05-19T18:24:03.180Z,15.13
2023-05-19T18:26:04.928Z,19.40
2023-05-19T18:28:06.650Z,16.58
2023-05-19T18:30:08.528Z,17.83
2023-05-19T18:32:10.229Z,19.45
2023-05-19T18:34:12.237Z,18.52
2023-05-19T18:36:15.545Z,19.58
2023-05-19T18:38:17.288Z,19.92
2023-05-19T18:40:18.906Z,23.30
2023-05-19T18:42:20.570Z,18.80
2023-05-19T18:44:22.193Z,19.48
2023-05-19T18:46:23.780Z,19.45
2023-05-19T18:48:28.389Z,18.77
2023-05-19T18:50:30.182Z,18.52
2023-05-19T18:52:31.737Z,16.70
2023-05-19T18:54:33.369Z,24.77
2023-05-19T18:56:35.491Z,20.83
2023-05-19T18:58:37.133Z,20.80
2023-05-19T19:00:38.751Z,19.38
2023-05-19T19:02:40.478Z,18.58
2023-05-19T19:04:42.157Z,19.50
2023-05-19T19:06:44.024Z,18.42
2023-05-19T19:08:45.736Z,18.92
2023-05-19T19:10:50.410Z,19.25
2023-05-19T19:12:52.049Z,22.38
2023-05-19T19:14:53.747Z,20.77
2023-05-19T19:16:55.338Z,20.67
2023-05-19T19:18:57.132Z,21.05
2023-05-19T19:21:01.630Z,21.20
2023-05-19T19:23:06.480Z,19.73
2023-05-19T19:25:08.659Z,22.65
2023-05-19T19:27:10.469Z,23.25
2023-05-19T19:29:12.189Z,39.30
2023-05-19T19:31:13.754Z,28.85
2023-05-19T19:33:15.575Z,31.35
2023-05-19T19:35:17.257Z,29.70
2023-05-19T19:37:19.057Z,29.90
2023-05-19T19:39:20.642Z,28.30
2023-05-19T19:41:22.284Z,25.40
2023-05-19T19:43:23.833Z,23.38
2023-05-19T19:45:25.522Z,22.23
2023-05-19T19:47:27.485Z,20.67
2023-05-19T19:49:29.147Z,22.33
2023-05-19T19:51:31.641Z,27.08
2023-05-19T19:53:33.257Z,39.35
2023-05-19T19:55:34.829Z,24.38
2023-05-19T19:57:36.397Z,25.38
2023-05-19T19:59:37.958Z,22.63
2023-05-19T20:01:39.601Z,24.17
2023-05-19T20:03:41.670Z,24.95
2023-05-19T20:05:44.047Z,25.92
2023-05-19T20:07:45.634Z,28.08
2023-05-19T20:09:47.867Z,27.40
2023-05-19T20:11:49.418Z,27.38
2023-05-19T20:13:51.363Z,30.73
2023-05-19T20:15:52.967Z,28.92
2023-05-19T20:17:54.713Z,26.30
2023-05-19T20:19:56.602Z,25.17
2023-05-19T20:21:58.184Z,22.85
2023-05-19T20:24:00.464Z,24.55
2023-05-19T20:26:11.077Z,24.15
2023-05-19T20:28:14.486Z,24.20
2023-05-19T20:30:16.432Z,23.25
2023-05-19T20:32:18.056Z,22.83
2023-05-19T20:34:19.865Z,24.45
2023-05-19T20:36:21.436Z,24.38
2023-05-19T20:38:23.018Z,25.17
2023-05-19T20:40:24.610Z,24.83
2023-05-19T20:42:26.207Z,29.13
2023-05-19T20:44:27.730Z,26.77
2023-05-19T20:46:29.514Z,25.48
2023-05-19T20:48:31.424Z,27.20
2023-05-19T20:50:33.311Z,26.50
2023-05-19T20:52:35.035Z,23.67
2023-05-19T20:54:36.695Z,28.77
2023-05-19T20:56:38.270Z,25.92
2023-05-19T20:58:39.982Z,28.13
2023-05-19T21:00:41.648Z,29.70
2023-05-19T21:02:43.321Z,28.52
2023-05-19T21:04:46.334Z,28.13
2023-05-19T21:06:48.028Z,28.85
2023-05-19T21:08:49.996Z,24.13
2023-05-19T21:10:51.619Z,26.83
2023-05-19T21:12:53.191Z,26.98
2023-05-19T21:14:54.782Z,26.02
2023-05-19T21:16:56.671Z,24.42
2023-05-19T21:18:58.500Z,26.65
2023-05-19T21:21:02.797Z,26.50
2023-05-19T21:23:04.835Z,28.52
2023-05-19T21:25:06.807Z,29.85
2023-05-19T21:27:08.358Z,20.45
2023-05-19T21:29:10.216Z,22.85
2023-05-19T21:31:11.848Z,22.17
2023-05-19T21:33:13.561Z,23.23
2023-05-19T21:35:15.219Z,20.13
2023-05-19T21:37:17.744Z,20.45
2023-05-19T21:39:19.337Z,21.00
2023-05-19T21:41:21.749Z,20.73
2023-05-19T21:43:23.739Z,17.98
2023-05-19T21:45:25.336Z,19.77
2023-05-19T21:47:27.037Z,18.15
2023-05-19T21:49:28.612Z,21.05
2023-05-19T21:51:30.255Z,23.75
2023-05-19T21:53:32.917Z,19.80
2023-05-19T21:55:34.985Z,15.57
2023-05-19T21:57:36.622Z,24.15
2023-05-19T21:59:38.639Z,19.50
2023-05-19T22:01:40.379Z,21.75
2023-05-19T22:03:42.082Z,22.98
2023-05-19T22:05:49.067Z,23.20
2023-05-19T22:07:50.606Z,23.23
2023-05-19T22:09:53.231Z,21.05
2023-05-19T22:11:54.804Z,18.63
2023-05-19T22:13:56.456Z,21.77
2023-05-19T22:15:58.432Z,20.63
2023-05-19T22:18:00.085Z,21.45
2023-05-19T22:20:01.725Z,21.48
2023-05-19T22:22:12.963Z,21.08
2023-05-19T22:24:16.186Z,19.05
2023-05-19T22:26:17.844Z,20.63
2023-05-19T22:28:19.404Z,20.02
2023-05-19T22:30:21.096Z,21.55
2023-05-19T22:32:22.690Z,21.27
2023-05-19T22:34:24.313Z,20.13
2023-05-19T22:36:25.966Z,20.02
2023-05-19T22:38:27.584Z,25.50
2023-05-19T22:40:29.229Z,25.13
2023-05-19T22:42:30.820Z,22.27
2023-05-19T22:44:32.366Z,19.65
2023-05-19T22:46:34.744Z,22.20
2023-05-19T22:48:36.338Z,20.88
2023-05-19T22:50:37.875Z,19.25
2023-05-19T22:52:39.427Z,19.35
2023-05-19T22:54:41.008Z,18.83
2023-05-19T22:56:48.024Z,18.52
2023-05-19T22:58:49.548Z,19.55
2023-05-19T23:00:51.323Z,23.45
2023-05-19T23:02:52.957Z,20.92
2023-05-19T23:04:54.600Z,21.25
2023-05-19T23:06:56.158Z,18.50
2023-05-19T23:08:59.422Z,22.77
2023-05-19T23:11:02.253Z,21.20
2023-05-19T23:13:03.774Z,20.45
2023-05-19T23:15:06.916Z,20.40
2023-05-19T23:17:08.563Z,21.02
2023-05-19T23:19:10.308Z,21.10
2023-05-19T23:21:11.924Z,20.20
2023-05-19T23:23:13.488Z,18.70
2023-05-19T23:25:15.095Z,20.80
2023-05-19T23:27:16.704Z,17.80
2023-05-19T23:29:18.355Z,18.52
2023-05-19T23:31:20.087Z,18.33
2023-05-19T23:33:21.735Z,18.23
2023-05-19T23:35:23.345Z,17.80
2023-05-19T23:37:24.949Z,17.67
2023-05-19T23:39:26.882Z,17.58
2023-05-19T23:41:28.689Z,17.45
2023-05-19T23:43:32.247Z,18.70
2023-05-19T23:45:34.016Z,21.70
2023-05-19T23:47:35.806Z,20.23
2023-05-19T23:49:37.497Z,20.30
2023-05-19T23:51:39.057Z,18.33
2023-05-19T23:53:40.827Z,18.70
2023-05-19T23:55:42.369Z,21.25
2023-05-19T23:57:43.967Z,27.13
2023-05-19T23:59:45.789Z,23.00
